Columbia, SC (29212)

2:07 PM EST on January 25, 2015 (GMT -0500)
Quail Valley | Change Station
CLOSE
Current Station
Personal Weather Station
Location: Irmo, SC
Elevation: 331 ft
Nearby Weather Stations

Elev 331 ft 34.08 °N, 81.17 °W | Updated 10 seconds ago

Clear
Clear
60.6 °F
Feels Like 60.6 °F
N
0.0
Wind Variable Wind from ENE
Gusts 0.0 mph

Today
High -- | Low -- °F
--% Chance of Precip.
Yesterday
High -- | Low -- °F
Precip. -- in
7:26 AM 5:48 PM
Waxing Crescent, 35% visible
Pressure 29.86 in
Visibility 10.0 miles
Clouds Clear
Dew Point 34 °F
Humidity 36%
Rainfall 0.00 in
Snow Depth Not available.
UV 4 out of 12
Pollen 3.00 out of 12
Air Quality Not available.
Flu Activity Not available.
METAR KCAE 251856Z 19009KT 10SM CLR 16/M01 A2986 RMK AO2 SLP110 T01561011 $

More Conditions Fewer Conditions

Pressure 29.86 in
Visibility 10.0 miles
Clouds Clear
Dew Point 34 °F
Humidity 36%
Rainfall 0.00 in
Snow Depth Not available.
UV 4 out of 12
Pollen 3.00 out of 12
Air Quality Not available.
Flu Activity Not available.
METAR KCAE 251856Z 19009KT 10SM CLR 16/M01 A2986 RMK AO2 SLP110 T01561011 $

More Conditions Fewer Conditions

10-Day Weather Forecast

Almanac

Astronomy

Jan. 25, 2015 Rise Set
Actual Time
Civil Twilight
Nautical Twilight
Astronomical Twilight
Moon
Length of Visible Light
Length of Day
Tomorrow will be .
, % of the Moon is Illuminated

Today's Extremes

State Highs State Lows

Community

WunderPhotos

Upload Photos

1,790,025 photos uploaded!

WunderBlogs® & News

Nearby

Air Quality

  Air Quality AQ Index Pollutant
Not available.

Snow Depth

Station Depth Elevation

Earthquake Activity

City Distance Mag. Time & Date
Minimum magnitude displayed is 2.5.

Coastal Water Temperatures

Place Temperature

Nearby Weather Stations